createdAt,value
2019-03-21T00:01:44.566Z,103082.92
2019-03-21T00:04:57.913Z,103089.91
2019-03-21T00:08:17.721Z,103075.97
2019-03-21T00:12:16.380Z,103073.41
2019-03-21T00:15:35.266Z,103073.86
2019-03-21T00:18:46.483Z,103069.62
2019-03-21T00:21:56.025Z,103069.21
2019-03-21T00:25:07.818Z,103070.06
2019-03-21T00:28:17.324Z,103064.01
2019-03-21T00:31:37.035Z,103061.81
2019-03-21T00:34:46.533Z,103064.45
2019-03-21T00:37:55.964Z,103065.75
2019-03-21T00:41:05.428Z,103057.91
2019-03-21T00:44:18.419Z,103063.71
2019-03-21T00:47:37.935Z,103066.65
2019-03-21T00:50:47.784Z,103069.70
2019-03-21T00:53:57.212Z,103065.34
2019-03-21T00:57:06.776Z,103064.02
2019-03-21T01:00:24.523Z,103064.45
2019-03-21T01:03:33.951Z,103065.38
2019-03-21T01:06:44.957Z,103061.07
2019-03-21T01:09:54.366Z,103060.63
2019-03-21T01:13:03.822Z,103052.30
2019-03-21T01:16:25.252Z,103049.73
2019-03-21T01:19:34.698Z,103048.88
2019-03-21T01:22:45.700Z,103057.91
2019-03-21T01:26:05.681Z,103053.48
2019-03-21T01:29:15.221Z,103051.00
2019-03-21T01:32:24.691Z,103052.63
2019-03-21T01:35:34.505Z,103051.33
2019-03-21T01:38:44.023Z,103050.47
2019-03-21T01:41:53.480Z,103048.72
2019-03-21T01:45:03.060Z,103049.14
2019-03-21T01:48:12.821Z,103041.45
2019-03-21T01:51:22.250Z,103042.34
2019-03-21T01:54:31.782Z,103037.42
2019-03-21T01:57:41.249Z,103045.72
2019-03-21T02:01:00.868Z,103037.02
2019-03-21T02:04:11.615Z,103043.97
2019-03-21T02:07:21.347Z,103045.72
2019-03-21T02:10:40.985Z,103043.89
2019-03-21T02:13:50.436Z,103041.41
2019-03-21T02:17:00.039Z,103042.18
2019-03-21T02:20:11.746Z,103041.00
2019-03-21T02:23:21.118Z,103038.36
2019-03-21T02:26:30.692Z,103021.00
2019-03-21T02:29:40.037Z,103021.45
2019-03-21T02:33:25.728Z,103017.99
2019-03-21T02:36:35.322Z,103019.37
2019-03-21T02:39:59.868Z,103014.50
2019-03-21T02:43:07.396Z,103016.37
2019-03-21T02:46:17.012Z,103013.07
2019-03-21T02:49:36.702Z,103019.94
2019-03-21T02:52:45.222Z,103019.50
2019-03-21T02:55:54.771Z,103021.56
2019-03-21T02:59:05.947Z,103018.03
2019-03-21T03:02:25.747Z,103022.75
2019-03-21T03:05:35.566Z,103025.06
2019-03-21T03:08:55.498Z,103016.29
2019-03-21T03:12:04.940Z,103021.05
2019-03-21T03:15:23.139Z,103020.63
2019-03-21T03:18:28.767Z,103026.61
2019-03-21T03:21:38.188Z,103030.11
2019-03-21T03:24:58.008Z,103022.27
2019-03-21T03:28:12.289Z,103018.89
2019-03-21T03:31:21.791Z,103015.35
2019-03-21T03:34:31.272Z,103024.87
2019-03-21T03:37:40.776Z,103019.66
2019-03-21T03:41:01.723Z,103023.11
2019-03-21T03:44:21.568Z,103017.95
2019-03-21T03:47:31.193Z,103015.92
2019-03-21T03:50:40.865Z,103022.38
2019-03-21T03:53:50.380Z,103024.13
2019-03-21T03:57:00.022Z,103026.33
2019-03-21T04:00:13.317Z,103029.41
2019-03-21T04:03:32.839Z,103020.97
2019-03-21T04:06:42.299Z,103031.04
2019-03-21T04:09:52.145Z,103024.95
2019-03-21T04:13:01.468Z,103023.23
2019-03-21T04:16:11.036Z,103020.19
2019-03-21T04:19:20.496Z,103019.82
2019-03-21T04:22:28.432Z,103020.19
2019-03-21T04:25:59.282Z,103017.59
2019-03-21T04:29:08.662Z,103023.28
2019-03-21T04:32:18.116Z,103019.78
2019-03-21T04:35:38.081Z,103020.59
2019-03-21T04:38:48.144Z,103018.89
2019-03-21T04:41:58.369Z,103025.02
2019-03-21T04:45:20.382Z,103019.41
2019-03-21T04:48:29.685Z,103017.30
2019-03-21T04:51:49.511Z,103013.73
2019-03-21T04:54:59.022Z,103012.02
2019-03-21T04:58:08.558Z,103014.21
2019-03-21T05:01:18.049Z,103015.06
2019-03-21T05:04:27.453Z,103011.16
2019-03-21T05:07:47.265Z,103006.77
2019-03-21T05:10:56.750Z,103013.31
2019-03-21T05:14:06.085Z,103011.65
2019-03-21T05:17:26.016Z,103024.91
2019-03-21T05:20:35.493Z,103023.72
2019-03-21T05:23:44.917Z,103018.19
2019-03-21T05:26:54.523Z,103019.49
2019-03-21T05:30:04.251Z,103020.67
2019-03-21T05:33:13.685Z,103010.76
2019-03-21T05:36:23.363Z,103020.64
2019-03-21T05:39:32.675Z,103018.89
2019-03-21T05:42:44.255Z,103016.29
2019-03-21T05:45:54.756Z,103016.73
2019-03-21T05:49:03.821Z,103017.18
2019-03-21T05:52:14.183Z,103011.05
2019-03-21T05:55:23.558Z,103011.81
2019-03-21T05:58:33.005Z,103020.52
2019-03-21T06:01:42.440Z,103024.01
2019-03-21T06:04:52.024Z,103021.77
2019-03-21T06:08:24.699Z,103024.38
2019-03-21T06:11:50.100Z,103019.58
2019-03-21T06:15:02.184Z,103026.53
2019-03-21T06:18:38.883Z,103023.03
2019-03-21T06:22:37.290Z,103031.28
2019-03-21T06:26:13.576Z,103028.19
2019-03-21T06:29:22.905Z,103027.78
2019-03-21T06:32:32.346Z,103026.53
2019-03-21T06:35:41.895Z,103036.13
2019-03-21T06:38:51.335Z,103035.31
2019-03-21T06:42:11.584Z,103032.55
2019-03-21T06:45:21.329Z,103030.83
2019-03-21T06:48:30.748Z,103035.99
2019-03-21T06:51:40.159Z,103036.45
2019-03-21T06:54:49.719Z,103042.10
2019-03-21T06:58:09.343Z,103048.88
2019-03-21T07:01:20.059Z,103058.44
2019-03-21T07:04:29.506Z,103054.89
2019-03-21T07:07:39.174Z,103054.58
2019-03-21T07:10:48.593Z,103054.09
2019-03-21T07:13:58.022Z,103059.25
2019-03-21T07:17:07.658Z,103074.86
2019-03-21T07:20:17.242Z,103073.06
2019-03-21T07:23:26.886Z,103066.11
2019-03-21T07:26:39.213Z,103066.56
2019-03-21T07:29:48.298Z,103069.62
2019-03-21T07:33:08.058Z,103073.64
2019-03-21T07:36:17.634Z,103072.48
2019-03-21T07:39:28.751Z,103081.09
2019-03-21T07:42:38.060Z,103073.25
2019-03-21T07:45:47.540Z,103075.03
2019-03-21T07:49:07.335Z,103067.19
2019-03-21T07:52:16.750Z,103071.66
2019-03-21T07:55:26.329Z,103068.24
2019-03-21T07:58:35.759Z,103074.59
2019-03-21T08:01:45.183Z,103086.30
2019-03-21T08:04:54.580Z,103089.67
2019-03-21T08:08:03.967Z,103090.04
2019-03-21T08:11:13.346Z,103097.72
2019-03-21T08:14:33.117Z,103110.78
2019-03-21T08:17:42.558Z,103108.14
2019-03-21T08:20:58.628Z,103111.63
2019-03-21T08:24:08.246Z,103113.02
2019-03-21T08:27:16.218Z,103114.73
2019-03-21T08:30:36.654Z,103112.61
2019-03-21T08:33:46.553Z,103116.88
2019-03-21T08:36:55.972Z,103119.48
2019-03-21T08:40:07.039Z,103126.16
2019-03-21T08:43:26.829Z,103140.39
2019-03-21T08:46:36.613Z,103131.32
2019-03-21T08:49:46.045Z,103136.52
2019-03-21T08:52:55.352Z,103135.37
2019-03-21T08:56:04.896Z,103137.45
2019-03-21T08:59:24.704Z,103134.08
2019-03-21T09:02:34.120Z,103137.57
2019-03-21T09:05:43.566Z,103144.41
2019-03-21T09:08:52.967Z,103147.05
2019-03-21T09:12:02.503Z,103147.12
2019-03-21T09:15:12.035Z,103153.62
2019-03-21T09:18:21.383Z,103156.23
2019-03-21T09:21:30.811Z,103169.58
2019-03-21T09:24:50.397Z,103173.55
2019-03-21T09:28:03.004Z,103179.27
2019-03-21T09:31:10.835Z,103177.94
2019-03-21T09:34:30.425Z,103166.56
2019-03-21T09:37:39.862Z,103175.78
2019-03-21T09:40:49.293Z,103174.06
2019-03-21T09:44:09.006Z,103168.01
2019-03-21T09:47:18.530Z,103168.95
2019-03-21T09:50:30.047Z,103177.14
2019-03-21T09:53:39.351Z,103180.57
2019-03-21T09:56:48.731Z,103178.76
2019-03-21T10:00:08.841Z,103176.60
2019-03-21T10:03:18.156Z,103183.14
2019-03-21T10:06:27.860Z,103170.20
2019-03-21T10:09:37.171Z,103171.09
2019-03-21T10:12:46.596Z,103161.05
2019-03-21T10:15:56.035Z,103157.50
2019-03-21T10:19:05.502Z,103164.38
2019-03-21T10:22:25.333Z,103166.42
2019-03-21T10:25:33.206Z,103166.80
2019-03-21T10:28:42.649Z,103161.59
2019-03-21T10:32:13.667Z,103174.48
2019-03-21T10:35:13.417Z,103169.72
2019-03-21T10:38:22.754Z,103167.12
2019-03-21T10:41:42.598Z,103159.63
2019-03-21T10:44:52.213Z,103157.89
2019-03-21T10:48:01.855Z,103157.84
2019-03-21T10:51:11.264Z,103157.80
2019-03-21T10:54:20.694Z,103154.30
2019-03-21T10:57:30.119Z,103156.81
2019-03-21T11:00:40.557Z,103161.53
2019-03-21T11:03:49.959Z,103157.17
2019-03-21T11:07:06.670Z,103155.33
2019-03-21T11:10:16.217Z,103148.85
2019-03-21T11:13:25.671Z,103150.56
2019-03-21T11:16:45.272Z,103153.83
2019-03-21T11:19:54.797Z,103147.75
2019-03-21T11:23:04.522Z,103151.95
2019-03-21T11:26:13.853Z,103143.96
2019-03-21T11:29:23.303Z,103144.81
2019-03-21T11:32:42.937Z,103141.87
2019-03-21T11:35:52.553Z,103141.92
2019-03-21T11:39:02.190Z,103139.15
2019-03-21T11:42:11.612Z,103138.81
2019-03-21T11:45:21.325Z,103145.54
2019-03-21T11:48:30.817Z,103143.61
2019-03-21T11:51:40.235Z,103137.46
2019-03-21T11:55:00.000Z,103135.84
2019-03-21T11:58:09.522Z,103126.65
2019-03-21T12:01:18.839Z,103125.66
2019-03-21T12:04:40.441Z,103117.34
2019-03-21T12:07:50.118Z,103121.45
2019-03-21T12:10:59.535Z,103119.02
2019-03-21T12:14:19.125Z,103114.63
2019-03-21T12:17:28.645Z,103115.02
2019-03-21T12:20:38.290Z,103111.45
2019-03-21T12:23:47.707Z,103111.23
2019-03-21T12:26:57.045Z,103129.92
2019-03-21T12:30:08.272Z,103121.59
2019-03-21T12:33:17.712Z,103118.82
2019-03-21T12:36:27.080Z,103114.47
2019-03-21T12:39:36.409Z,103102.17
2019-03-21T12:42:45.924Z,103112.15
2019-03-21T12:46:05.787Z,103110.67
2019-03-21T12:49:15.108Z,103123.30
2019-03-21T12:52:24.527Z,103117.91
2019-03-21T12:55:44.234Z,103106.94
2019-03-21T12:58:53.568Z,103110.77
2019-03-21T13:02:02.871Z,103107.28
2019-03-21T13:05:18.607Z,103103.83
2019-03-21T13:08:33.678Z,103101.16
2019-03-21T13:11:39.266Z,103098.63
2019-03-21T13:14:48.753Z,103109.17
2019-03-21T13:18:00.285Z,103094.20
2019-03-21T13:21:20.298Z,103088.98
2019-03-21T13:24:29.657Z,103091.37
2019-03-21T13:27:49.295Z,103081.10
2019-03-21T13:30:58.613Z,103081.02
2019-03-21T13:34:07.904Z,103078.41
2019-03-21T13:37:17.395Z,103077.42
2019-03-21T13:40:26.854Z,103080.31
2019-03-21T13:43:36.367Z,103085.55
2019-03-21T13:46:45.839Z,103079.11
2019-03-21T13:49:55.174Z,103090.45
2019-03-21T13:53:13.989Z,103087.56
2019-03-21T13:56:15.790Z,103092.79
2019-03-21T13:59:25.081Z,103084.56
2019-03-21T14:02:44.693Z,103088.16
2019-03-21T14:05:55.301Z,103083.27
2019-03-21T14:09:06.207Z,103073.75
2019-03-21T14:12:15.621Z,103072.50
2019-03-21T14:15:35.801Z,103073.05
2019-03-21T14:18:45.242Z,103069.45
2019-03-21T14:22:05.010Z,103068.03
2019-03-21T14:25:15.590Z,103062.37
2019-03-21T14:28:24.975Z,103056.81
2019-03-21T14:31:36.175Z,103060.36
2019-03-21T14:34:45.563Z,103061.01
2019-03-21T14:37:55.110Z,103062.71
2019-03-21T14:41:14.869Z,103059.75
2019-03-21T14:44:24.210Z,103054.80
2019-03-21T14:47:36.467Z,103055.95
2019-03-21T14:50:45.234Z,103054.34
2019-03-21T14:53:54.540Z,103054.88
2019-03-21T14:57:14.553Z,103061.26
2019-03-21T15:00:23.891Z,103055.73
2019-03-21T15:03:33.271Z,103061.41
2019-03-21T15:06:42.791Z,103057.89
2019-03-21T15:09:52.198Z,103069.25
2019-03-21T15:13:11.874Z,103069.53
2019-03-21T15:16:21.283Z,103077.55
2019-03-21T15:19:30.774Z,103076.72
2019-03-21T15:22:50.411Z,103066.64
2019-03-21T15:25:59.930Z,103073.68
2019-03-21T15:29:09.488Z,103072.05
2019-03-21T15:32:30.982Z,103065.81
2019-03-21T15:35:40.506Z,103067.20
2019-03-21T15:38:50.058Z,103066.33
2019-03-21T15:41:59.527Z,103061.37
2019-03-21T15:45:22.085Z,103062.71
2019-03-21T15:48:23.630Z,103068.64
2019-03-21T15:51:32.923Z,103073.03
2019-03-21T15:54:42.394Z,103065.41
2019-03-21T15:57:51.739Z,103065.10
2019-03-21T16:01:01.058Z,103071.34
2019-03-21T16:04:20.848Z,103060.33
2019-03-21T16:07:30.267Z,103065.34
2019-03-21T16:10:39.582Z,103069.19
2019-03-21T16:13:59.499Z,103056.05
2019-03-21T16:17:08.898Z,103058.80
2019-03-21T16:20:18.285Z,103063.11
2019-03-21T16:23:37.873Z,103065.81
2019-03-21T16:26:47.488Z,103061.27
2019-03-21T16:29:56.876Z,103063.41
2019-03-21T16:33:06.314Z,103068.09
2019-03-21T16:36:15.780Z,103060.84
2019-03-21T16:39:25.132Z,103058.19
2019-03-21T16:42:37.081Z,103049.52
2019-03-21T16:45:45.749Z,103049.41
2019-03-21T16:49:05.290Z,103055.43
2019-03-21T16:52:14.692Z,103065.11
2019-03-21T16:55:24.148Z,103055.97
2019-03-21T16:58:43.861Z,103059.48
2019-03-21T17:01:53.269Z,103077.94
2019-03-21T17:05:02.715Z,103077.66
2019-03-21T17:08:22.314Z,103074.55
2019-03-21T17:11:33.064Z,103069.66
2019-03-21T17:14:43.109Z,103069.14
2019-03-21T17:17:52.782Z,103071.28
2019-03-21T17:21:02.290Z,103069.69
2019-03-21T17:24:11.762Z,103076.92
2019-03-21T17:27:21.291Z,103077.13
2019-03-21T17:30:32.153Z,103080.00
2019-03-21T17:33:41.586Z,103076.95
2019-03-21T17:36:51.074Z,103073.48
2019-03-21T17:40:00.515Z,103076.92
2019-03-21T17:43:10.033Z,103078.36
2019-03-21T17:46:29.712Z,103082.02
2019-03-21T17:49:39.174Z,103088.95
2019-03-21T17:52:48.615Z,103083.41
2019-03-21T17:56:08.274Z,103084.65
2019-03-21T17:59:17.720Z,103082.04
2019-03-21T18:02:27.189Z,103090.77
2019-03-21T18:05:46.802Z,103088.84
2019-03-21T18:08:56.206Z,103087.37
2019-03-21T18:12:05.658Z,103087.94
2019-03-21T18:15:26.660Z,103098.70
2019-03-21T18:18:46.308Z,103094.81
2019-03-21T18:21:55.770Z,103099.30
2019-03-21T18:25:05.385Z,103096.73
2019-03-21T18:28:14.815Z,103097.09
2019-03-21T18:31:24.455Z,103101.05
2019-03-21T18:34:44.178Z,103100.66
2019-03-21T18:37:53.643Z,103098.11
2019-03-21T18:41:03.122Z,103098.13
2019-03-21T18:44:12.547Z,103100.70
2019-03-21T18:47:22.125Z,103107.25
2019-03-21T18:50:41.953Z,103098.05
2019-03-21T18:53:51.368Z,103101.13
2019-03-21T18:57:00.822Z,103108.66
2019-03-21T19:00:11.719Z,103101.34
2019-03-21T19:03:21.044Z,103092.16
2019-03-21T19:06:30.398Z,103088.36
2019-03-21T19:09:50.066Z,103087.22
2019-03-21T19:12:59.502Z,103083.95
2019-03-21T19:16:08.919Z,103090.58
2019-03-21T19:19:28.656Z,103099.71
2019-03-21T19:22:38.257Z,103105.42
2019-03-21T19:25:47.668Z,103107.97
2019-03-21T19:28:58.641Z,103111.31
2019-03-21T19:32:08.180Z,103109.22
2019-03-21T19:35:28.020Z,103109.61
2019-03-21T19:38:37.457Z,103111.83
2019-03-21T19:41:46.888Z,103108.94
2019-03-21T19:45:09.226Z,103110.92
2019-03-21T19:48:18.623Z,103114.89
2019-03-21T19:51:28.038Z,103124.42
2019-03-21T19:54:37.470Z,103125.27
2019-03-21T19:57:57.657Z,103116.98
2019-03-21T20:01:06.960Z,103116.59
2019-03-21T20:04:26.799Z,103129.13
2019-03-21T20:07:36.317Z,103127.93
2019-03-21T20:10:45.794Z,103131.84
2019-03-21T20:14:05.338Z,103128.26
2019-03-21T20:17:14.787Z,103132.39
2019-03-21T20:20:24.222Z,103134.51
2019-03-21T20:23:43.912Z,103143.97
2019-03-21T20:26:53.340Z,103141.41
2019-03-21T20:30:02.798Z,103141.58
2019-03-21T20:33:22.465Z,103138.47
2019-03-21T20:36:31.890Z,103138.59
2019-03-21T20:39:41.318Z,103140.73
2019-03-21T20:43:01.029Z,103146.24
2019-03-21T20:46:10.437Z,103153.77
2019-03-21T20:49:19.867Z,103150.82
2019-03-21T20:52:39.652Z,103149.05
2019-03-21T20:55:53.595Z,103159.03
2019-03-21T20:59:11.035Z,103163.80
2019-03-21T21:02:20.066Z,103159.48
2019-03-21T21:05:29.500Z,103169.45
2019-03-21T21:08:38.952Z,103171.22
2019-03-21T21:11:48.271Z,103169.10
2019-03-21T21:14:57.712Z,103169.06
2019-03-21T21:18:17.608Z,103166.80
2019-03-21T21:21:27.033Z,103171.66
2019-03-21T21:24:36.477Z,103168.60
2019-03-21T21:27:56.038Z,103170.36
2019-03-21T21:31:05.472Z,103171.31
2019-03-21T21:34:14.910Z,103171.27
2019-03-21T21:37:34.690Z,103157.73
2019-03-21T21:40:44.005Z,103160.44
2019-03-21T21:43:53.299Z,103152.27
2019-03-21T21:47:02.751Z,103153.16
2019-03-21T21:50:13.199Z,103145.77
2019-03-21T21:53:22.498Z,103151.87
2019-03-21T21:56:31.910Z,103147.59
2019-03-21T21:59:52.994Z,103150.57
2019-03-21T22:03:02.604Z,103139.43
2019-03-21T22:06:12.212Z,103145.09
2019-03-21T22:09:21.628Z,103140.78
2019-03-21T22:12:31.012Z,103141.67
2019-03-21T22:15:40.548Z,103137.05
2019-03-21T22:18:50.723Z,103136.60
2019-03-21T22:22:00.558Z,103135.79
2019-03-21T22:25:10.763Z,103140.14
2019-03-21T22:28:20.153Z,103139.66
2019-03-21T22:31:42.072Z,103134.36
2019-03-21T22:34:51.436Z,103133.59
2019-03-21T22:38:11.128Z,103131.75
2019-03-21T22:41:20.444Z,103137.09
2019-03-21T22:44:29.743Z,103149.34
2019-03-21T22:47:39.153Z,103151.50
2019-03-21T22:50:48.464Z,103149.30
2019-03-21T22:53:57.767Z,103157.52
2019-03-21T22:57:07.204Z,103165.78
2019-03-21T23:00:18.850Z,103161.39
2019-03-21T23:03:46.267Z,103153.09
2019-03-21T23:06:55.670Z,103157.11
2019-03-21T23:10:05.538Z,103154.83
2019-03-21T23:13:14.915Z,103156.62
2019-03-21T23:16:24.283Z,103155.40
2019-03-21T23:19:43.810Z,103151.50
2019-03-21T23:22:54.312Z,103146.70
2019-03-21T23:26:03.641Z,103146.01
2019-03-21T23:29:12.958Z,103146.05
2019-03-21T23:32:22.386Z,103139.87
2019-03-21T23:35:31.786Z,103137.71
2019-03-21T23:38:41.108Z,103133.77
2019-03-21T23:42:00.774Z,103121.72
2019-03-21T23:45:10.524Z,103119.56
2019-03-21T23:48:19.969Z,103122.20
2019-03-21T23:51:29.310Z,103132.22
2019-03-21T23:54:38.817Z,103124.55
2019-03-21T23:57:58.813Z,103108.42
